createdAt,value
2022-11-22T00:01:20.794Z,94731.78
2022-11-22T00:03:47.230Z,94738.56
2022-11-22T00:06:13.602Z,94741.06
2022-11-22T00:08:40.001Z,94741.81
2022-11-22T00:11:06.446Z,94746.16
2022-11-22T00:13:32.842Z,94738.88
2022-11-22T00:16:03.375Z,94736.81
2022-11-22T00:18:29.838Z,94736.97
2022-11-22T00:20:56.497Z,94733.75
2022-11-22T00:23:22.949Z,94730.59
2022-11-22T00:25:49.385Z,94730.78
2022-11-22T00:28:15.770Z,94735.38
2022-11-22T00:30:42.173Z,94737.56
2022-11-22T00:33:08.571Z,94745.09
2022-11-22T00:35:35.146Z,94737.19
2022-11-22T00:38:01.596Z,94740.72
2022-11-22T00:40:27.978Z,94744.66
2022-11-22T00:42:54.491Z,94750.63
2022-11-22T00:45:20.934Z,94760.59
2022-11-22T00:47:47.372Z,94753.75
2022-11-22T00:50:13.787Z,94757.44
2022-11-22T00:52:40.274Z,94763.09
2022-11-22T00:55:07.135Z,94758.34
2022-11-22T00:57:33.514Z,94763.56
2022-11-22T01:00:00.129Z,94763.56
2022-11-22T01:02:26.556Z,94761.13
2022-11-22T01:04:53.081Z,94753.59
2022-11-22T01:07:19.862Z,94755.00
2022-11-22T01:09:46.309Z,94762.03
2022-11-22T01:12:12.692Z,94760.84
2022-11-22T01:14:39.354Z,94766.06
2022-11-22T01:17:05.749Z,94760.84
2022-11-22T01:19:32.463Z,94763.28
2022-11-22T01:21:59.047Z,94775.72
2022-11-22T01:24:25.453Z,94766.44
2022-11-22T01:26:51.833Z,94766.06
2022-11-22T01:29:18.258Z,94756.47
2022-11-22T01:31:44.818Z,94762.81
2022-11-22T01:34:11.218Z,94764.09
2022-11-22T01:36:37.623Z,94771.28
2022-11-22T01:39:04.078Z,94773.63
2022-11-22T01:41:30.879Z,94764.38
2022-11-22T01:43:57.591Z,94771.56
2022-11-22T01:46:37.399Z,94775.97
2022-11-22T01:49:07.464Z,94775.00
2022-11-22T01:51:41.211Z,94781.81
2022-11-22T01:54:13.557Z,94779.22
2022-11-22T01:56:42.484Z,94781.28
2022-11-22T01:59:12.623Z,94782.09
2022-11-22T02:01:39.223Z,94781.63
2022-11-22T02:04:06.692Z,94787.69
2022-11-22T02:06:41.535Z,94787.69
2022-11-22T02:09:11.646Z,94795.13
2022-11-22T02:11:40.127Z,94803.59
2022-11-22T02:14:08.200Z,94796.69
2022-11-22T02:16:35.034Z,94799.56
2022-11-22T02:19:01.623Z,94797.03
2022-11-22T02:21:28.977Z,94797.03
2022-11-22T02:24:19.667Z,94799.00
2022-11-22T02:26:46.116Z,94793.97
2022-11-22T02:29:13.709Z,94803.59
2022-11-22T02:31:40.134Z,94797.22
2022-11-22T02:34:07.061Z,94793.25
2022-11-22T02:36:34.945Z,94792.53
2022-11-22T02:39:01.347Z,94794.16
2022-11-22T02:41:27.895Z,94791.81
2022-11-22T02:43:54.470Z,94792.16
2022-11-22T02:46:22.667Z,94792.81
2022-11-22T02:48:49.562Z,94793.78
2022-11-22T02:51:19.584Z,94793.44
2022-11-22T02:53:47.261Z,94785.25
2022-11-22T02:56:14.034Z,94783.44
2022-11-22T02:58:40.466Z,94782.25
2022-11-22T03:01:06.968Z,94775.06
2022-11-22T03:03:33.506Z,94775.06
2022-11-22T03:05:59.941Z,94776.31
2022-11-22T03:08:26.420Z,94777.56
2022-11-22T03:10:52.850Z,94777.19
2022-11-22T03:13:19.446Z,94780.44
2022-11-22T03:15:48.643Z,94778.81
2022-11-22T03:18:15.259Z,94768.50
2022-11-22T03:20:41.689Z,94769.53
2022-11-22T03:23:08.085Z,94763.97
2022-11-22T03:25:37.374Z,94762.16
2022-11-22T03:28:03.793Z,94763.97
2022-11-22T03:30:30.333Z,94771.56
2022-11-22T03:32:56.723Z,94768.13
2022-11-22T03:35:23.308Z,94774.22
2022-11-22T03:37:49.882Z,94780.69
2022-11-22T03:40:16.355Z,94774.84
2022-11-22T03:42:42.729Z,94780.44
2022-11-22T03:45:09.357Z,94782.41
2022-11-22T03:47:35.785Z,94793.31
2022-11-22T03:50:02.195Z,94784.94
2022-11-22T03:52:29.585Z,94784.19
2022-11-22T03:54:56.369Z,94779.22
2022-11-22T03:57:22.990Z,94777.88
2022-11-22T03:59:49.390Z,94777.06
2022-11-22T04:02:17.044Z,94783.09
2022-11-22T04:04:43.646Z,94783.72
2022-11-22T04:07:10.046Z,94785.72
2022-11-22T04:09:36.565Z,94783.47
2022-11-22T04:12:03.168Z,94792.66
2022-11-22T04:14:48.041Z,94783.47
2022-11-22T04:17:34.983Z,94782.53
2022-11-22T04:20:20.118Z,94777.88
2022-11-22T04:22:54.734Z,94774.63
2022-11-22T04:25:21.103Z,94779.75
2022-11-22T04:27:47.488Z,94780.81
2022-11-22T04:30:20.084Z,94782.41
2022-11-22T04:32:46.987Z,94773.97
2022-11-22T04:35:14.603Z,94773.63
2022-11-22T04:37:41.295Z,94782.28
2022-11-22T04:40:08.135Z,94784.97
2022-11-22T04:42:53.555Z,94782.72
2022-11-22T04:45:19.950Z,94783.91
2022-11-22T04:47:59.041Z,94779.47
2022-11-22T04:50:44.609Z,94773.88
2022-11-22T04:53:11.023Z,94772.34
2022-11-22T04:55:37.497Z,94780.00
2022-11-22T04:58:03.910Z,94783.34
2022-11-22T05:00:30.944Z,94787.22
2022-11-22T05:02:58.054Z,94782.06
2022-11-22T05:05:24.767Z,94783.88
2022-11-22T05:07:51.353Z,94776.47
2022-11-22T05:10:21.422Z,94778.53
2022-11-22T05:12:51.057Z,94775.38
2022-11-22T05:15:17.548Z,94768.56
2022-11-22T05:17:43.975Z,94770.63
2022-11-22T05:20:10.765Z,94767.84
2022-11-22T05:22:56.029Z,94765.03
2022-11-22T05:25:25.453Z,94775.94
2022-11-22T05:27:55.421Z,94785.75
2022-11-22T05:30:22.054Z,94783.34
2022-11-22T05:32:48.453Z,94779.72
2022-11-22T05:35:14.945Z,94787.00
2022-11-22T05:37:41.406Z,94790.84
2022-11-22T05:40:08.183Z,94789.25
2022-11-22T05:42:34.630Z,94789.72
2022-11-22T05:45:01.026Z,94798.94
2022-11-22T05:47:27.632Z,94788.94
2022-11-22T05:49:54.023Z,94798.19
2022-11-22T05:52:20.397Z,94796.41
2022-11-22T05:54:46.841Z,94801.44
2022-11-22T05:57:13.299Z,94793.16
2022-11-22T05:59:43.926Z,94797.81
2022-11-22T06:02:10.925Z,94800.44
2022-11-22T06:04:37.528Z,94802.69
2022-11-22T06:07:09.563Z,94806.09
2022-11-22T06:09:36.366Z,94808.19
2022-11-22T06:12:02.784Z,94806.16
2022-11-22T06:14:29.174Z,94808.53
2022-11-22T06:16:55.632Z,94810.09
2022-11-22T06:19:22.073Z,94807.28
2022-11-22T06:21:48.470Z,94803.66
2022-11-22T06:24:14.916Z,94809.66
2022-11-22T06:26:41.508Z,94814.00
2022-11-22T06:29:07.989Z,94799.50
2022-11-22T06:31:34.506Z,94804.53
2022-11-22T06:34:00.907Z,94809.94
2022-11-22T06:36:31.381Z,94810.56
2022-11-22T06:38:58.160Z,94805.59
2022-11-22T06:41:25.949Z,94819.47
2022-11-22T06:43:53.554Z,94816.25
2022-11-22T06:46:21.527Z,94833.81
2022-11-22T06:48:48.274Z,94824.97
2022-11-22T06:51:14.660Z,94836.31
2022-11-22T06:53:49.152Z,94828.09
2022-11-22T06:56:16.119Z,94833.56
2022-11-22T06:58:43.021Z,94831.19
2022-11-22T07:01:10.684Z,94841.22
2022-11-22T07:03:37.831Z,94833.50
2022-11-22T07:06:04.349Z,94844.34
2022-11-22T07:08:31.094Z,94841.09
2022-11-22T07:11:04.744Z,94834.16
2022-11-22T07:13:31.375Z,94841.41
2022-11-22T07:15:58.362Z,94832.16
2022-11-22T07:18:25.407Z,94833.81
2022-11-22T07:20:51.835Z,94833.44
2022-11-22T07:23:18.444Z,94836.50
2022-11-22T07:25:48.723Z,94832.69
2022-11-22T07:28:15.869Z,94832.31
2022-11-22T07:30:44.140Z,94827.69
2022-11-22T07:33:10.922Z,94831.94
2022-11-22T07:35:37.341Z,94829.34
2022-11-22T07:38:04.079Z,94838.06
2022-11-22T07:40:30.542Z,94844.53
2022-11-22T07:42:58.557Z,94839.28
2022-11-22T07:45:25.262Z,94839.66
2022-11-22T07:47:51.707Z,94835.78
2022-11-22T07:50:18.101Z,94843.03
2022-11-22T07:52:44.669Z,94842.03
2022-11-22T07:55:14.194Z,94835.19
2022-11-22T07:57:41.080Z,94837.91
2022-11-22T08:00:07.779Z,94821.97
2022-11-22T08:02:34.212Z,94823.84
2022-11-22T08:05:00.616Z,94816.28
2022-11-22T08:07:27.048Z,94816.91
2022-11-22T08:09:53.454Z,94812.25
2022-11-22T08:12:19.864Z,94819.75
2022-11-22T08:14:46.324Z,94820.72
2022-11-22T08:17:12.725Z,94820.16
2022-11-22T08:19:39.385Z,94814.41
2022-11-22T08:22:05.775Z,94825.69
2022-11-22T08:24:32.985Z,94824.84
2022-11-22T08:26:59.482Z,94824.22
2022-11-22T08:29:25.955Z,94830.47
2022-11-22T08:31:52.379Z,94818.75
2022-11-22T08:34:18.940Z,94818.69
2022-11-22T08:36:45.555Z,94806.97
2022-11-22T08:39:11.955Z,94806.53
2022-11-22T08:41:38.338Z,94815.38
2022-11-22T08:44:04.873Z,94820.19
2022-11-22T08:46:31.621Z,94822.59
2022-11-22T08:48:58.285Z,94828.00
2022-11-22T08:51:24.980Z,94825.78
2022-11-22T08:53:51.425Z,94824.34
2022-11-22T08:56:17.904Z,94832.16
2022-11-22T08:58:44.417Z,94825.78
2022-11-22T09:01:14.674Z,94819.34
2022-11-22T09:03:42.161Z,94818.19
2022-11-22T09:09:15.609Z,94811.75
2022-11-22T09:11:45.678Z,94815.19
2022-11-22T09:14:12.117Z,94812.59
2022-11-22T09:16:38.506Z,94806.16
2022-11-22T09:19:04.997Z,94808.63
2022-11-22T09:21:31.435Z,94813.03
2022-11-22T09:23:58.036Z,94822.28
2022-11-22T09:26:25.287Z,94825.34
2022-11-22T09:28:53.447Z,94823.59
2022-11-22T09:31:20.573Z,94816.44
2022-11-22T09:33:49.327Z,94814.63
2022-11-22T09:36:19.811Z,94814.41
2022-11-22T09:38:46.275Z,94802.31
2022-11-22T09:41:15.548Z,94804.13
2022-11-22T09:43:41.898Z,94800.50
2022-11-22T09:46:08.307Z,94812.75
2022-11-22T09:48:36.273Z,94803.94
2022-11-22T09:51:14.966Z,94805.72
2022-11-22T09:53:54.391Z,94804.91
2022-11-22T09:56:24.246Z,94802.72
2022-11-22T09:58:55.810Z,94806.41
2022-11-22T10:01:34.611Z,94798.94
2022-11-22T10:04:03.457Z,94793.09
2022-11-22T10:06:43.476Z,94793.53
2022-11-22T10:09:22.082Z,94793.16
2022-11-22T10:11:53.216Z,94797.41
2022-11-22T10:14:27.125Z,94794.78
2022-11-22T10:16:57.701Z,94791.97
2022-11-22T10:19:29.907Z,94789.78
2022-11-22T10:21:56.572Z,94783.16
2022-11-22T10:24:22.943Z,94779.75
2022-11-22T10:26:49.998Z,94783.16
2022-11-22T10:29:23.333Z,94775.13
2022-11-22T10:31:53.783Z,94770.75
2022-11-22T10:34:39.152Z,94766.38
2022-11-22T10:37:14.302Z,94760.75
2022-11-22T10:39:40.786Z,94761.63
2022-11-22T10:42:26.223Z,94765.09
2022-11-22T10:45:02.519Z,94769.94
2022-11-22T10:47:43.138Z,94767.56
2022-11-22T10:50:12.462Z,94764.19
2022-11-22T10:52:39.020Z,94765.41
2022-11-22T10:55:23.334Z,94763.78
2022-11-22T10:57:49.673Z,94763.00
2022-11-22T11:00:24.937Z,94754.16
2022-11-22T11:03:10.040Z,94757.00
2022-11-22T11:06:07.951Z,94754.22
2022-11-22T11:09:02.824Z,94753.03
2022-11-22T11:11:24.581Z,94747.41
2022-11-22T11:13:53.035Z,94752.25
2022-11-22T11:16:21.499Z,94744.19
2022-11-22T11:18:51.304Z,94745.03
2022-11-22T11:21:17.719Z,94745.66
2022-11-22T11:23:44.191Z,94735.81
2022-11-22T11:26:30.966Z,94744.91
2022-11-22T11:29:16.843Z,94736.66
2022-11-22T11:31:44.046Z,94743.50
2022-11-22T11:34:22.402Z,94750.75
2022-11-22T11:36:50.221Z,94741.50
2022-11-22T11:39:44.838Z,94741.50
2022-11-22T11:42:22.034Z,94740.34
2022-11-22T11:44:48.522Z,94741.97
2022-11-22T11:47:34.141Z,94744.81
2022-11-22T11:50:00.860Z,94748.63
2022-11-22T11:52:28.754Z,94750.84
2022-11-22T11:54:57.800Z,94752.91
2022-11-22T11:57:31.466Z,94739.59
2022-11-22T11:59:59.466Z,94736.34
2022-11-22T12:02:41.999Z,94732.31
2022-11-22T12:05:11.482Z,94724.41
2022-11-22T12:07:39.219Z,94723.84
2022-11-22T12:10:29.707Z,94719.38
2022-11-22T12:13:04.045Z,94716.59
2022-11-22T12:15:33.918Z,94716.97
2022-11-22T12:18:07.076Z,94721.03
2022-11-22T12:20:46.384Z,94716.38
2022-11-22T12:23:32.447Z,94715.78
2022-11-22T12:25:59.227Z,94719.00
2022-11-22T12:28:27.706Z,94714.19
2022-11-22T12:30:56.945Z,94718.59
2022-11-22T12:33:29.894Z,94716.97
2022-11-22T12:35:56.817Z,94707.72
2022-11-22T12:38:34.221Z,94714.19
2022-11-22T12:41:03.261Z,94716.59
2022-11-22T12:43:33.375Z,94717.00
2022-11-22T12:46:03.425Z,94713.78
2022-11-22T12:48:35.261Z,94715.38
2022-11-22T12:51:21.923Z,94712.53
2022-11-22T12:53:48.895Z,94703.28
2022-11-22T12:56:29.832Z,94711.34
2022-11-22T12:59:19.235Z,94713.34
2022-11-22T13:01:49.457Z,94701.25
2022-11-22T13:04:36.205Z,94707.91
2022-11-22T13:07:25.706Z,94708.53
2022-11-22T13:10:00.007Z,94708.91
2022-11-22T13:12:34.327Z,94703.66
2022-11-22T13:15:01.907Z,94712.13
2022-11-22T13:17:33.438Z,94707.91
2022-11-22T13:20:03.236Z,94702.41
2022-11-22T13:22:38.456Z,94704.81
2022-11-22T13:25:04.812Z,94700.81
2022-11-22T13:27:41.030Z,94703.63
2022-11-22T13:30:17.426Z,94703.63
2022-11-22T13:32:43.856Z,94707.25
2022-11-22T13:35:13.003Z,94712.06
2022-11-22T13:37:41.596Z,94705.19
2022-11-22T13:40:18.719Z,94713.03
2022-11-22T13:42:45.172Z,94700.38
2022-11-22T13:45:22.032Z,94706.19
2022-11-22T13:47:48.701Z,94713.28
2022-11-22T13:50:33.627Z,94705.84
2022-11-22T13:53:15.791Z,94707.25
2022-11-22T13:55:42.866Z,94702.81
2022-11-22T13:58:24.415Z,94703.78
2022-11-22T14:00:54.931Z,94707.19
2022-11-22T14:03:32.370Z,94701.88
2022-11-22T14:05:58.960Z,94699.41
2022-11-22T14:08:30.551Z,94709.41
2022-11-22T14:10:56.917Z,94699.88
2022-11-22T14:13:23.269Z,94702.91
2022-11-22T14:15:49.653Z,94699.44
2022-11-22T14:18:34.836Z,94710.91
2022-11-22T14:21:05.396Z,94706.03
2022-11-22T14:23:50.818Z,94699.78
2022-11-22T14:26:19.958Z,94704.22
2022-11-22T14:29:11.392Z,94698.81
2022-11-22T14:31:50.679Z,94699.59
2022-11-22T14:34:19.652Z,94716.28
2022-11-22T14:37:06.089Z,94718.34
2022-11-22T14:39:44.834Z,94712.53
2022-11-22T14:42:29.790Z,94715.38
2022-11-22T14:44:56.293Z,94717.34
2022-11-22T14:47:22.977Z,94721.06
2022-11-22T14:49:51.163Z,94723.09
2022-11-22T14:52:25.308Z,94727.38
2022-11-22T14:54:56.703Z,94722.75
2022-11-22T14:57:25.200Z,94730.78
2022-11-22T15:00:04.261Z,94727.13
2022-11-22T15:02:36.926Z,94734.31
2022-11-22T15:09:13.828Z,94736.69
2022-11-22T15:09:22.566Z,94728.44
2022-11-22T15:11:26.659Z,94723.38
2022-11-22T15:14:00.404Z,94719.31
2022-11-22T15:59:39.532Z,94759.78
2022-11-22T16:02:33.300Z,94766.63
2022-11-22T16:06:04.696Z,94757.19
2022-11-22T16:07:55.405Z,94763.25
2022-11-22T16:10:22.987Z,94768.03
2022-11-22T16:12:50.143Z,94768.38
2022-11-22T16:15:19.644Z,94762.28
2022-11-22T16:17:55.053Z,94769.16
2022-11-22T16:20:28.024Z,94769.78
2022-11-22T16:23:09.512Z,94769.16
2022-11-22T16:25:37.466Z,94768.34
2022-11-22T16:28:18.923Z,94766.34
2022-11-22T16:30:45.644Z,94767.50
2022-11-22T16:33:12.282Z,94766.44
2022-11-22T16:35:38.989Z,94774.84
2022-11-22T16:38:07.161Z,94765.81
2022-11-22T16:40:39.129Z,94763.75
2022-11-22T16:43:13.575Z,94769.94
2022-11-22T16:45:40.730Z,94769.31
2022-11-22T16:48:31.222Z,94776.16
2022-11-22T16:50:59.649Z,94773.97
2022-11-22T16:53:26.787Z,94761.72
2022-11-22T16:55:53.185Z,94776.16
2022-11-22T16:58:21.763Z,94769.94
2022-11-22T17:00:48.824Z,94776.09
2022-11-22T17:03:18.143Z,94776.44
2022-11-22T17:05:44.596Z,94771.00
2022-11-22T17:08:15.505Z,94776.03
2022-11-22T17:10:43.680Z,94772.50
2022-11-22T17:13:14.370Z,94769.31
2022-11-22T17:15:42.202Z,94776.53
2022-11-22T17:18:08.593Z,94775.66
2022-11-22T17:20:35.601Z,94775.66
2022-11-22T17:23:02.924Z,94783.94
2022-11-22T17:25:29.310Z,94787.00
2022-11-22T17:27:55.767Z,94792.47
2022-11-22T17:30:22.227Z,94781.38
2022-11-22T17:32:48.610Z,94780.59
2022-11-22T17:35:15.002Z,94781.81
2022-11-22T17:37:41.385Z,94783.84
2022-11-22T17:40:09.030Z,94781.38
2022-11-22T17:42:40.750Z,94777.78
2022-11-22T17:45:07.832Z,94771.00
2022-11-22T17:47:35.725Z,94767.94
2022-11-22T17:50:02.139Z,94780.59
2022-11-22T17:52:28.637Z,94775.41
2022-11-22T17:54:55.063Z,94773.44
2022-11-22T17:57:21.441Z,94776.22
2022-11-22T17:59:47.897Z,94771.34
2022-11-22T18:02:14.435Z,94768.16
2022-11-22T18:04:42.600Z,94778.53
2022-11-22T18:07:09.034Z,94763.22
2022-11-22T18:09:35.548Z,94769.31
2022-11-22T18:12:02.049Z,94770.19
2022-11-22T18:14:30.618Z,94767.63
2022-11-22T18:16:57.640Z,94770.03
2022-11-22T18:19:24.051Z,94776.28
2022-11-22T18:21:50.475Z,94779.63
2022-11-22T18:24:16.861Z,94774.59
2022-11-22T18:26:43.259Z,94777.22
2022-11-22T18:29:41.217Z,94779.00
2022-11-22T18:31:57.166Z,94781.03
2022-11-22T18:34:23.672Z,94770.91
2022-11-22T18:37:01.920Z,94774.94
2022-11-22T18:39:34.265Z,94774.53
2022-11-22T18:42:01.371Z,94765.69
2022-11-22T18:44:27.815Z,94772.56
2022-11-22T18:46:54.209Z,94764.09
2022-11-22T18:49:20.672Z,94763.03
2022-11-22T18:51:47.117Z,94768.44
2022-11-22T18:54:13.583Z,94763.22
2022-11-22T18:56:40.882Z,94763.22
2022-11-22T18:59:08.081Z,94771.31
2022-11-22T19:01:34.769Z,94765.25
2022-11-22T19:04:01.703Z,94764.47
2022-11-22T19:06:28.077Z,94766.06
2022-11-22T19:08:55.371Z,94759.88
2022-11-22T19:11:21.851Z,94761.09
2022-11-22T19:13:48.222Z,94766.94
2022-11-22T19:16:16.063Z,94764.09
2022-11-22T19:18:43.327Z,94762.84
2022-11-22T19:21:11.111Z,94757.59
2022-11-22T19:23:37.910Z,94765.09
2022-11-22T19:26:05.794Z,94749.56
2022-11-22T19:28:32.648Z,94752.38
2022-11-22T19:31:01.980Z,94753.56
2022-11-22T19:33:28.550Z,94760.59
2022-11-22T19:35:56.114Z,94765.19
2022-11-22T19:38:22.599Z,94759.53
2022-11-22T19:40:48.994Z,94765.97
2022-11-22T19:43:16.617Z,94759.09
2022-11-22T19:45:43.382Z,94761.47
2022-11-22T19:48:09.771Z,94769.88
2022-11-22T19:50:39.203Z,94771.63
2022-11-22T19:53:05.925Z,94777.03
2022-11-22T19:55:35.825Z,94784.88
2022-11-22T19:58:02.479Z,94779.41
2022-11-22T20:00:29.913Z,94775.53
2022-11-22T20:02:56.501Z,94769.25
2022-11-22T20:05:22.997Z,94766.66
2022-11-22T20:07:49.410Z,94759.53
2022-11-22T20:10:15.954Z,94763.53
2022-11-22T20:12:45.679Z,94773.47
2022-11-22T20:15:12.062Z,94773.22
2022-11-22T20:17:38.488Z,94782.22
2022-11-22T20:20:05.633Z,94781.59
2022-11-22T20:22:32.009Z,94775.13
2022-11-22T20:24:59.139Z,94773.69
2022-11-22T20:27:25.731Z,94770.63
2022-11-22T20:29:52.121Z,94773.59
2022-11-22T20:32:18.643Z,94779.19
2022-11-22T20:34:45.059Z,94767.13
2022-11-22T20:37:11.432Z,94761.44
2022-11-22T20:39:37.928Z,94761.00
2022-11-22T20:42:32.654Z,94757.16
2022-11-22T20:44:51.070Z,94762.13
2022-11-22T20:47:17.530Z,94771.28
2022-11-22T20:49:45.613Z,94767.06
2022-11-22T20:52:12.221Z,94763.81
2022-11-22T20:54:38.660Z,94767.16
2022-11-22T20:57:05.116Z,94762.47
2022-11-22T20:59:31.500Z,94768.25
2022-11-22T21:01:57.915Z,94759.16
2022-11-22T21:04:24.394Z,94760.16
2022-11-22T21:06:50.752Z,94762.13
2022-11-22T21:09:17.162Z,94755.63
2022-11-22T21:11:45.296Z,94749.63
2022-11-22T21:14:12.142Z,94753.41
2022-11-22T21:16:38.739Z,94754.72
2022-11-22T21:19:05.276Z,94760.69
2022-11-22T21:21:33.140Z,94768.22
2022-11-22T21:24:00.838Z,94765.00
2022-11-22T21:26:27.871Z,94763.38
2022-11-22T21:28:54.566Z,94758.88
2022-11-22T21:31:21.864Z,94755.63
2022-11-22T21:33:48.608Z,94750.69
2022-11-22T21:36:15.075Z,94751.22
2022-11-22T21:38:41.465Z,94749.16
2022-11-22T21:41:38.034Z,94748.88
2022-11-22T21:43:56.957Z,94750.03
2022-11-22T21:46:24.310Z,94753.09
2022-11-22T21:48:51.770Z,94759.59
2022-11-22T21:51:18.212Z,94757.78
2022-11-22T21:53:44.618Z,94753.09
2022-11-22T21:56:11.074Z,94756.25
2022-11-22T21:58:37.507Z,94759.22
2022-11-22T22:01:09.520Z,94747.34
2022-11-22T22:03:37.482Z,94754.50
2022-11-22T22:06:04.021Z,94757.66
2022-11-22T22:08:30.457Z,94760.63
2022-11-22T22:11:02.528Z,94755.41
2022-11-22T22:13:30.789Z,94750.66
2022-11-22T22:15:58.419Z,94744.44
2022-11-22T22:18:29.347Z,94738.97
2022-11-22T22:20:59.726Z,94746.78
2022-11-22T22:23:26.259Z,94748.38
2022-11-22T22:25:56.734Z,94738.41
2022-11-22T22:28:24.144Z,94737.28
2022-11-22T22:30:50.594Z,94741.66
2022-11-22T22:33:17.011Z,94731.06
2022-11-22T22:35:43.407Z,94728.28
2022-11-22T22:38:09.771Z,94726.03
2022-11-22T22:40:36.120Z,94717.22
2022-11-22T22:43:02.671Z,94716.41
2022-11-22T22:45:29.052Z,94720.00
2022-11-22T22:47:55.422Z,94706.97
2022-11-22T22:50:21.988Z,94704.34
2022-11-22T22:52:48.565Z,94705.63
2022-11-22T22:55:14.974Z,94702.47
2022-11-22T22:57:41.333Z,94701.31
2022-11-22T23:00:09.294Z,94704.91
2022-11-22T23:02:36.860Z,94704.28
2022-11-22T23:05:03.385Z,94701.03
2022-11-22T23:07:29.827Z,94709.69
2022-11-22T23:09:56.297Z,94703.66
2022-11-22T23:12:22.754Z,94710.84
2022-11-22T23:14:49.202Z,94706.81
2022-11-22T23:17:15.717Z,94700.31
2022-11-22T23:19:42.097Z,94697.25
2022-11-22T23:22:08.479Z,94696.25
2022-11-22T23:24:34.841Z,94691.41
2022-11-22T23:27:01.305Z,94696.97
2022-11-22T23:29:27.752Z,94698.31
2022-11-22T23:31:54.187Z,94698.13
2022-11-22T23:34:20.593Z,94700.47
2022-11-22T23:36:47.050Z,94709.66
2022-11-22T23:39:13.496Z,94700.38
2022-11-22T23:41:39.938Z,94696.16
2022-11-22T23:44:06.632Z,94701.25
2022-11-22T23:46:33.009Z,94697.38
2022-11-22T23:49:00.536Z,94697.91
2022-11-22T23:51:28.169Z,94699.25
2022-11-22T23:53:55.072Z,94696.00
2022-11-22T23:56:22.130Z,94691.16
2022-11-22T23:58:48.972Z,94690.69
